Terminal Aerodrome Forecast
Issued by NWS

Home | Current Version | Previous Version | Text Only | Print | Product List | Glossary On
Versions: 1 2 3 4 5 6 7 8 9 10 11 12 13
272
FTUS45 KTFX 262320
TAFLWT
TAF
KLWT 262320Z 2700/2724 32006KT P6SM VCTS SCT070CB BKN100
     FM271700 04008KT P6SM SCT030 BKN060 PROB30 2717/2720 -SHRA
      BKN030
     FM272000 05010KT P6SM SCT035 BKN100 PROB30 2720/2724 -SHRA
      BKN035=

USA.gov is the U.S. government's official web portal to all federal, state and local government web resources and services.